KPLN

Pellston Regional of Emmet County Airport

Pellston, Michigan, USA
METAR KPLN 280054Z AUTO 28003KT 10SM CLR 25/17 A2987 RMK AO2 SLP111 T02500167
Observed Flight Rules
May-28 @ 00:54 UTC (15 minutes ago) Visual Flight Rules
Wind Visibility Clouds
280° at 3 knots 10 miles
  • Clear skies
Temperatures Readings
Current 25°C / 77°F
Dewpoint 17°C / 63°F
Humidity 61%
Altimeter 29.87" Hg
Pressure 1011.1 hPa
Elevation 217
METAR KPLN 280054Z AUTO 28003KT 10SM CLR 25/17 A2987 RMK AO2 SLP111 T02500167
Observed Flight Rules
May-28 @ 00:54 UTC
(15 minutes ago)
VFR
Wind Visibility
280° at 3 knots 10 miles
Clouds
  • Clear skies
Temperature Dewpoint
25°C / 77°F 17°C / 63°F
Humidity Altimeter Pressure
61% 29.87" Hg 1011.1 hPa